Time;durP1;ratioP1;P1;durP2;ratioP2;P2;SDS_P1;SDS_P2;PMS_P1;PMS_P2;Temp;Humidity;BMP_temperature;BMP_pressure;BME280_temperature;BME280_humidity;BME280_pressure;Samples;Min_cycle;Max_cycle;Signal;HPM_P1;HPM_P2
2022/08/24 00:00:57;;;;;;;6.73;3.23;;;;;;;;;;5013850;28;20196;-68
2022/08/24 00:03:23;;;;;;;6.80;3.90;;;;;;;;;;5012490;28;20176;-68
2022/08/24 00:05:50;;;;;;;3.83;3.00;;;;;;;;;;5013708;28;20183;-68
2022/08/24 00:08:17;;;;;;;8.80;3.73;;;;;;;;;;5012386;28;20199;-68
2022/08/24 00:10:43;;;;;;;9.03;3.40;;;;;;;;;;5014233;28;20234;-68
2022/08/24 00:13:09;;;;;;;5.23;3.27;;;;;;;;;;5012341;28;20241;-68
2022/08/24 00:15:36;;;;;;;5.10;3.43;;;;;;;;;;5013580;28;20275;-68
2022/08/24 00:18:02;;;;;;;8.43;3.50;;;;;;;;;;5013442;28;20567;-68
2022/08/24 00:20:28;;;;;;;6.17;4.03;;;;;;;;;;5013956;28;20287;-67
2022/08/24 00:22:54;;;;;;;5.13;3.50;;;;;;;;;;5012305;28;20646;-67
2022/08/24 00:25:20;;;;;;;10.90;2.93;;;;;;;;;;5013455;28;20179;-67
2022/08/24 00:27:46;;;;;;;4.87;3.20;;;;;;;;;;5013513;28;20196;-67
2022/08/24 00:30:14;;;;;;;4.77;3.33;;;;;;;;;;5013401;28;20183;-65
2022/08/24 00:32:40;;;;;;;7.13;3.27;;;;;;;;;;5013307;28;20179;-67
2022/08/24 00:35:07;;;;;;;5.00;3.13;;;;;;;;;;5013327;28;20261;-66
2022/08/24 00:37:33;;;;;;;6.80;3.40;;;;;;;;;;5013234;28;20346;-66
2022/08/24 00:39:59;;;;;;;5.60;3.33;;;;;;;;;;5011923;28;20747;-66
2022/08/24 00:42:25;;;;;;;4.87;3.43;;;;;;;;;;5013288;28;20182;-67
2022/08/24 00:44:51;;;;;;;6.73;3.10;;;;;;;;;;5011975;28;20176;-67
2022/08/24 00:47:23;;;;;;;6.07;3.60;;;;;;;;;;5013165;28;20211;-67
2022/08/24 00:49:58;;;;;;;6.00;3.27;;;;;;;;;;5038006;23;20239;-69
2022/08/24 00:52:30;;;;;;;5.83;3.20;;;;;;;;;;5014476;28;20183;-69
2022/08/24 00:54:59;;;;;;;4.30;3.37;;;;;;;;;;4997104;28;20184;-69
2022/08/24 00:57:34;;;;;;;5.57;3.50;;;;;;;;;;5014739;28;20191;-69
2022/08/24 01:00:02;;;;;;;6.50;3.33;;;;;;;;;;5014755;28;20238;-69
2022/08/24 01:02:33;;;;;;;5.57;3.80;;;;;;;;;;4997031;28;20218;-69
2022/08/24 01:05:04;;;;;;;9.17;4.10;;;;;;;;;;4996927;28;20176;-69
2022/08/24 01:07:32;;;;;;;5.47;3.40;;;;;;;;;;5014764;28;20158;-69
2022/08/24 01:09:59;;;;;;;6.13;3.50;;;;;;;;;;5014446;28;20632;-69
2022/08/24 01:12:26;;;;;;;5.33;3.63;;;;;;;;;;4996831;28;20277;-71
2022/08/24 01:14:53;;;;;;;4.63;3.20;;;;;;;;;;4996693;28;20190;-69
2022/08/24 01:20:05;;;;;;;6.10;3.60;;;;;;;;;;5014236;28;20223;-69
2022/08/24 01:22:31;;;;;;;5.87;3.80;;;;;;;;;;4996890;28;20643;-69
2022/08/24 01:24:58;;;;;;;5.27;3.83;;;;;;;;;;5014547;28;20184;-69
2022/08/24 01:27:24;;;;;;;6.67;3.80;;;;;;;;;;5014635;28;20288;-70
2022/08/24 01:29:51;;;;;;;5.93;3.77;;;;;;;;;;5014926;28;20216;-69
2022/08/24 01:32:19;;;;;;;16.60;4.30;;;;;;;;;;4996607;28;20562;-69
2022/08/24 01:34:45;;;;;;;6.10;3.80;;;;;;;;;;5017275;28;20275;-69
2022/08/24 01:37:11;;;;;;;7.87;3.70;;;;;;;;;;5018165;28;20749;-69
2022/08/24 01:39:39;;;;;;;7.77;3.80;;;;;;;;;;5017866;28;20212;-69
2022/08/24 01:42:05;;;;;;;5.87;4.13;;;;;;;;;;5018468;28;20176;-69
2022/08/24 01:44:35;;;;;;;6.40;3.83;;;;;;;;;;5017895;28;20180;-68
2022/08/24 01:47:02;;;;;;;8.23;4.93;;;;;;;;;;5018131;28;20218;-69
2022/08/24 01:49:30;;;;;;;9.90;4.37;;;;;;;;;;5000004;28;20675;-69
2022/08/24 01:51:56;;;;;;;8.33;4.40;;;;;;;;;;5000068;28;20180;-69
2022/08/24 01:54:22;;;;;;;8.10;4.47;;;;;;;;;;5018205;28;20235;-69
2022/08/24 01:56:48;;;;;;;7.53;4.67;;;;;;;;;;5017805;28;20176;-69
2022/08/24 01:59:14;;;;;;;11.57;5.73;;;;;;;;;;4999973;28;20215;-68
2022/08/24 02:01:43;;;;;;;13.17;5.87;;;;;;;;;;5017661;28;20203;-69
2022/08/24 02:04:10;;;;;;;11.10;5.50;;;;;;;;;;5017567;28;20179;-69
2022/08/24 02:06:36;;;;;;;11.90;5.63;;;;;;;;;;5000059;28;20230;-68
2022/08/24 02:09:03;;;;;;;10.87;5.83;;;;;;;;;;5017306;28;20202;-69
2022/08/24 02:11:29;;;;;;;5.30;3.90;;;;;;;;;;5000132;28;20187;-69
2022/08/24 02:13:55;;;;;;;12.87;4.63;;;;;;;;;;5017522;28;20184;-69
2022/08/24 02:16:21;;;;;;;8.40;5.07;;;;;;;;;;5017104;28;20613;-68
2022/08/24 02:18:47;;;;;;;7.43;4.80;;;;;;;;;;5017339;28;20176;-69
2022/08/24 02:21:13;;;;;;;8.20;5.30;;;;;;;;;;5017281;28;20234;-69
2022/08/24 02:23:40;;;;;;;17.90;4.73;;;;;;;;;;5017566;28;20184;-69
2022/08/24 02:26:07;;;;;;;6.90;4.27;;;;;;;;;;5016943;28;20178;-69
2022/08/24 02:28:34;;;;;;;7.27;4.57;;;;;;;;;;5017040;28;20183;-68
2022/08/24 02:31:00;;;;;;;8.67;5.13;;;;;;;;;;4999636;28;20278;-69
2022/08/24 02:33:27;;;;;;;10.00;4.90;;;;;;;;;;4999586;28;20267;-69
2022/08/24 02:35:56;;;;;;;12.83;5.27;;;;;;;;;;5017135;28;20184;-69
2022/08/24 02:38:22;;;;;;;7.37;4.87;;;;;;;;;;5017664;28;20198;-69
2022/08/24 02:40:48;;;;;;;7.00;5.27;;;;;;;;;;5017140;28;20215;-69
2022/08/24 02:43:14;;;;;;;6.00;4.17;;;;;;;;;;5017214;28;20183;-69
2022/08/24 02:45:42;;;;;;;6.30;4.50;;;;;;;;;;5016505;28;20187;-69
2022/08/24 02:48:09;;;;;;;11.40;4.23;;;;;;;;;;5017267;28;20179;-68
2022/08/24 02:50:37;;;;;;;6.00;4.47;;;;;;;;;;5016744;28;20257;-68
2022/08/24 02:53:03;;;;;;;7.77;4.60;;;;;;;;;;5016955;28;20764;-69
2022/08/24 02:55:29;;;;;;;6.40;4.10;;;;;;;;;;5017203;28;20203;-69
2022/08/24 02:57:55;;;;;;;9.23;4.27;;;;;;;;;;5017128;28;20655;-67
2022/08/24 03:00:21;;;;;;;6.97;4.57;;;;;;;;;;4999127;28;20247;-69
2022/08/24 03:02:47;;;;;;;7.67;4.27;;;;;;;;;;4999168;28;20176;-69
2022/08/24 03:05:14;;;;;;;8.13;4.57;;;;;;;;;;5016265;28;20198;-69
2022/08/24 03:07:40;;;;;;;9.43;4.70;;;;;;;;;;5016469;28;20649;-68
2022/08/24 03:10:06;;;;;;;8.30;4.30;;;;;;;;;;5017177;28;20214;-69
2022/08/24 03:12:33;;;;;;;7.33;4.30;;;;;;;;;;5016609;28;20182;-69
2022/08/24 03:15:01;;;;;;;7.90;4.20;;;;;;;;;;5016670;28;20188;-69
2022/08/24 03:17:30;;;;;;;5.67;4.20;;;;;;;;;;4998805;28;20356;-69
2022/08/24 03:19:56;;;;;;;7.43;4.60;;;;;;;;;;5016443;28;20298;-69
2022/08/24 03:22:22;;;;;;;8.50;4.53;;;;;;;;;;5016911;28;20194;-69
2022/08/24 03:24:48;;;;;;;12.07;4.33;;;;;;;;;;5016460;28;20176;-69
2022/08/24 03:27:14;;;;;;;6.40;4.50;;;;;;;;;;4999061;28;20212;-69
2022/08/24 03:29:40;;;;;;;8.57;4.50;;;;;;;;;;4998836;28;20199;-69
2022/08/24 03:32:07;;;;;;;5.97;4.57;;;;;;;;;;5016166;28;20213;-69
2022/08/24 03:34:33;;;;;;;12.50;5.00;;;;;;;;;;5016703;28;20202;-69
2022/08/24 03:36:58;;;;;;;7.60;4.70;;;;;;;;;;5016032;28;20533;-69
2022/08/24 03:39:24;;;;;;;9.13;4.60;;;;;;;;;;5015686;28;20243;-69
2022/08/24 03:41:50;;;;;;;7.60;4.30;;;;;;;;;;5015899;28;20180;-69
2022/08/24 03:44:16;;;;;;;5.90;4.23;;;;;;;;;;5015610;28;20271;-69
2022/08/24 03:46:45;;;;;;;9.53;4.73;;;;;;;;;;5015969;28;20179;-69
2022/08/24 03:49:13;;;;;;;7.17;4.80;;;;;;;;;;5015595;28;20207;-69
2022/08/24 03:51:39;;;;;;;7.73;4.83;;;;;;;;;;4998141;28;20185;-69
2022/08/24 03:54:06;;;;;;;7.37;5.43;;;;;;;;;;5015451;28;20184;-69
2022/08/24 03:56:32;;;;;;;7.83;4.40;;;;;;;;;;5015412;28;20263;-69
2022/08/24 03:58:58;;;;;;;8.00;4.77;;;;;;;;;;5015000;28;20226;-69
2022/08/24 04:01:24;;;;;;;10.90;4.70;;;;;;;;;;4998034;28;20286;-69
2022/08/24 04:03:52;;;;;;;9.40;5.13;;;;;;;;;;5016204;28;20259;-68
2022/08/24 04:06:19;;;;;;;15.97;5.97;;;;;;;;;;4998356;28;20640;-69
2022/08/24 04:08:45;;;;;;;5.57;4.77;;;;;;;;;;5015491;28;20269;-68
2022/08/24 04:11:13;;;;;;;5.90;4.97;;;;;;;;;;5015620;28;20185;-69
2022/08/24 04:13:39;;;;;;;5.50;4.47;;;;;;;;;;5015785;28;20175;-70
2022/08/24 04:16:09;;;;;;;10.30;5.37;;;;;;;;;;4997787;28;20188;-67
2022/08/24 04:18:35;;;;;;;8.97;4.33;;;;;;;;;;5015503;28;20188;-69
2022/08/24 04:21:01;;;;;;;6.40;4.80;;;;;;;;;;4997530;28;20230;-69
2022/08/24 04:23:27;;;;;;;7.93;5.07;;;;;;;;;;5014962;28;20184;-69
2022/08/24 04:25:53;;;;;;;6.63;4.50;;;;;;;;;;5015065;28;20179;-68
2022/08/24 04:28:20;;;;;;;9.00;4.70;;;;;;;;;;5015228;28;20234;-69
2022/08/24 04:30:50;;;;;;;7.60;4.87;;;;;;;;;;5015127;28;20211;-69
2022/08/24 04:33:17;;;;;;;10.30;5.33;;;;;;;;;;5015654;28;20260;-70
2022/08/24 04:35:44;;;;;;;7.97;4.37;;;;;;;;;;4997438;28;20179;-69
2022/08/24 04:38:11;;;;;;;5.43;4.60;;;;;;;;;;5015460;28;20262;-69
2022/08/24 04:40:40;;;;;;;9.80;5.50;;;;;;;;;;4997247;28;20218;-69
2022/08/24 04:43:07;;;;;;;7.60;4.77;;;;;;;;;;4997411;28;20184;-69
2022/08/24 04:45:33;;;;;;;5.63;4.60;;;;;;;;;;5015438;28;20172;-69
2022/08/24 04:47:59;;;;;;;9.00;5.20;;;;;;;;;;5014974;28;20245;-69
2022/08/24 04:50:25;;;;;;;8.23;4.63;;;;;;;;;;5015087;28;20747;-68
2022/08/24 04:52:52;;;;;;;8.57;5.30;;;;;;;;;;5015456;28;20222;-69
2022/08/24 04:55:18;;;;;;;7.47;5.10;;;;;;;;;;5015058;28;20180;-69
2022/08/24 04:57:45;;;;;;;7.47;4.57;;;;;;;;;;5015420;28;20231;-69
2022/08/24 05:00:12;;;;;;;7.47;5.17;;;;;;;;;;5014793;28;20204;-69
2022/08/24 05:02:38;;;;;;;11.07;6.00;;;;;;;;;;5014553;28;20176;-69
2022/08/24 05:05:05;;;;;;;7.90;4.97;;;;;;;;;;4997308;28;20253;-69
2022/08/24 05:07:31;;;;;;;7.63;5.70;;;;;;;;;;4997088;28;20230;-69
2022/08/24 05:09:57;;;;;;;17.43;5.37;;;;;;;;;;5000004;28;20211;-69
2022/08/24 05:12:23;;;;;;;8.00;5.23;;;;;;;;;;5018401;28;20279;-69
2022/08/24 05:14:49;;;;;;;8.17;5.33;;;;;;;;;;5018827;28;20259;-70
2022/08/24 05:17:15;;;;;;;6.07;5.10;;;;;;;;;;5018453;28;20187;-69
2022/08/24 05:19:42;;;;;;;8.70;5.43;;;;;;;;;;5018935;28;20199;-70
2022/08/24 05:22:08;;;;;;;8.10;5.07;;;;;;;;;;5018428;28;20598;-69
2022/08/24 05:24:34;;;;;;;10.87;5.50;;;;;;;;;;5000644;28;20647;-69
2022/08/24 05:27:00;;;;;;;13.60;6.17;;;;;;;;;;5018227;28;20183;-70
2022/08/24 05:29:26;;;;;;;11.77;6.20;;;;;;;;;;5001032;28;20203;-69
2022/08/24 05:31:53;;;;;;;9.37;5.60;;;;;;;;;;5018434;28;20176;-69
2022/08/24 05:34:19;;;;;;;9.33;5.90;;;;;;;;;;5018306;28;20255;-71
2022/08/24 05:36:45;;;;;;;9.53;6.57;;;;;;;;;;5018462;28;20214;-70
2022/08/24 05:39:12;;;;;;;12.40;6.03;;;;;;;;;;5000371;28;20200;-69
2022/08/24 05:41:39;;;;;;;10.50;5.10;;;;;;;;;;5018252;28;20203;-70
2022/08/24 05:44:05;;;;;;;11.37;5.50;;;;;;;;;;5000505;28;20234;-69
2022/08/24 05:46:31;;;;;;;13.23;5.30;;;;;;;;;;5017829;28;20180;-69
2022/08/24 05:48:58;;;;;;;13.93;5.67;;;;;;;;;;5018522;28;20760;-69
2022/08/24 05:51:24;;;;;;;10.53;5.87;;;;;;;;;;5018253;28;20621;-70
2022/08/24 05:53:50;;;;;;;9.67;5.90;;;;;;;;;;5000378;28;20258;-70
2022/08/24 05:56:17;;;;;;;9.33;5.63;;;;;;;;;;5018704;28;20184;-70
2022/08/24 05:58:43;;;;;;;11.40;5.57;;;;;;;;;;5017816;28;20187;-70
2022/08/24 06:01:11;;;;;;;10.90;5.60;;;;;;;;;;5000423;28;20207;-69
2022/08/24 06:03:38;;;;;;;12.40;5.70;;;;;;;;;;5017843;28;20262;-70
2022/08/24 06:06:05;;;;;;;10.40;5.83;;;;;;;;;;5000603;28;20678;-70
2022/08/24 06:08:33;;;;;;;12.57;5.20;;;;;;;;;;5018122;28;20180;-70
2022/08/24 06:11:00;;;;;;;9.73;5.03;;;;;;;;;;5017810;28;20250;-70
2022/08/24 06:13:26;;;;;;;18.83;5.90;;;;;;;;;;5017428;28;20200;-69
2022/08/24 06:16:01;;;;;;;12.57;5.80;;;;;;;;;;5017761;28;20187;-70
2022/08/24 06:18:27;;;;;;;14.20;6.13;;;;;;;;;;5017771;28;20246;-70
2022/08/24 06:20:53;;;;;;;16.37;6.20;;;;;;;;;;5016418;28;20243;-70
2022/08/24 06:23:19;;;;;;;13.03;7.07;;;;;;;;;;5017313;28;20184;-70
2022/08/24 06:28:31;;;;;;;14.67;7.00;;;;;;;;;;5017913;28;20175;-69
2022/08/24 06:31:04;;;;;;;10.07;6.17;;;;;;;;;;4999582;28;20282;-69
2022/08/24 06:33:30;;;;;;;15.80;6.50;;;;;;;;;;5017309;28;20164;-69
2022/08/24 06:35:56;;;;;;;17.93;7.40;;;;;;;;;;4999821;28;20550;-69
2022/08/24 06:38:22;;;;;;;9.57;6.97;;;;;;;;;;4999439;28;20187;-69
2022/08/24 06:40:48;;;;;;;11.20;6.50;;;;;;;;;;5016916;28;20219;-69
2022/08/24 06:43:14;;;;;;;13.60;6.73;;;;;;;;;;5017102;28;20182;-69
2022/08/24 06:45:43;;;;;;;20.90;7.93;;;;;;;;;;5017066;28;20182;-69
2022/08/24 06:48:10;;;;;;;13.93;7.63;;;;;;;;;;5017301;28;20258;-69
2022/08/24 06:50:35;;;;;;;12.17;7.37;;;;;;;;;;5016560;28;20276;-69
2022/08/24 06:53:02;;;;;;;15.20;6.80;;;;;;;;;;5016806;28;20188;-68
2022/08/24 06:55:28;;;;;;;15.90;7.07;;;;;;;;;;5017081;28;20219;-69
2022/08/24 06:57:54;;;;;;;13.97;7.37;;;;;;;;;;4999029;28;20176;-69
2022/08/24 07:00:20;;;;;;;17.10;7.10;;;;;;;;;;4998907;28;20215;-69
2022/08/24 07:02:46;;;;;;;13.27;6.17;;;;;;;;;;4999113;28;20258;-69
2022/08/24 07:05:12;;;;;;;16.30;7.50;;;;;;;;;;5016820;28;20180;-69
2022/08/24 07:07:38;;;;;;;14.17;6.63;;;;;;;;;;5016744;28;20178;-69
2022/08/24 07:10:07;;;;;;;10.73;5.73;;;;;;;;;;4998783;28;20199;-69
2022/08/24 07:12:33;;;;;;;13.80;5.50;;;;;;;;;;5030897;23;20232;-66
2022/08/24 07:14:59;;;;;;;8.13;4.77;;;;;;;;;;5014638;28;20179;-66
2022/08/24 07:17:25;;;;;;;12.27;5.53;;;;;;;;;;5014590;28;20184;-69
2022/08/24 07:19:51;;;;;;;9.27;5.70;;;;;;;;;;5013237;28;20208;-69
2022/08/24 07:22:17;;;;;;;8.13;5.00;;;;;;;;;;5013148;28;20613;-66
2022/08/24 07:24:43;;;;;;;12.07;6.70;;;;;;;;;;5013176;28;20191;-67
2022/08/24 07:27:09;;;;;;;9.33;5.60;;;;;;;;;;5014320;28;20180;-68
2022/08/24 07:29:35;;;;;;;12.17;5.60;;;;;;;;;;5013142;28;20261;-69
2022/08/24 07:32:01;;;;;;;11.63;5.90;;;;;;;;;;5014362;28;20229;-67
2022/08/24 07:34:28;;;;;;;17.53;5.70;;;;;;;;;;5014318;28;20259;-67
2022/08/24 07:36:54;;;;;;;6.57;4.53;;;;;;;;;;5014426;28;20249;-67
2022/08/24 07:39:19;;;;;;;7.63;4.10;;;;;;;;;;5014225;28;20184;-67
2022/08/24 07:41:45;;;;;;;7.63;4.60;;;;;;;;;;5013974;28;20203;-67
2022/08/24 07:44:12;;;;;;;8.40;5.00;;;;;;;;;;5012700;28;20188;-67
2022/08/24 07:46:39;;;;;;;10.20;4.50;;;;;;;;;;5012942;28;20207;-67
2022/08/24 07:49:06;;;;;;;10.70;4.43;;;;;;;;;;5012954;28;20335;-67
2022/08/24 07:51:32;;;;;;;9.60;5.60;;;;;;;;;;5012881;28;20198;-67
2022/08/24 07:53:58;;;;;;;6.37;4.87;;;;;;;;;;5013137;28;20204;-68
2022/08/24 07:56:27;;;;;;;7.53;5.67;;;;;;;;;;5014556;28;20659;-67
2022/08/24 07:58:53;;;;;;;8.87;4.80;;;;;;;;;;5012790;28;20180;-67
2022/08/24 08:01:20;;;;;;;14.20;5.47;;;;;;;;;;5014431;28;20671;-67
2022/08/24 08:03:46;;;;;;;10.47;5.57;;;;;;;;;;5013793;28;20246;-67
2022/08/24 08:06:12;;;;;;;9.53;4.90;;;;;;;;;;5012550;28;20176;-67
2022/08/24 08:08:39;;;;;;;10.30;5.30;;;;;;;;;;5012466;28;20225;-67
2022/08/24 08:11:06;;;;;;;11.83;5.23;;;;;;;;;;5012306;28;20187;-67
2022/08/24 08:13:32;;;;;;;13.33;5.20;;;;;;;;;;5013425;28;20235;-67
2022/08/24 08:15:58;;;;;;;12.10;5.23;;;;;;;;;;5012261;28;20562;-67
2022/08/24 08:18:24;;;;;;;10.40;5.53;;;;;;;;;;5013584;28;20194;-68
2022/08/24 08:20:50;;;;;;;17.73;5.80;;;;;;;;;;5013454;28;20574;-68
2022/08/24 08:26:01;;;;;;;13.80;5.80;;;;;;;;;;5013829;28;20648;-67
2022/08/24 08:28:31;;;;;;;14.73;5.20;;;;;;;;;;5013713;28;20641;-67
2022/08/24 08:30:58;;;;;;;8.23;4.80;;;;;;;;;;5013771;28;20175;-67
2022/08/24 08:33:25;;;;;;;10.23;5.13;;;;;;;;;;5013248;28;20200;-67
2022/08/24 08:35:52;;;;;;;15.53;5.77;;;;;;;;;;5013455;28;20263;-67
2022/08/24 08:38:18;;;;;;;13.77;5.47;;;;;;;;;;5013519;28;20266;-67
2022/08/24 08:40:44;;;;;;;10.90;5.93;;;;;;;;;;5013427;28;20294;-68
2022/08/24 08:43:30;;;;;;;14.40;5.17;;;;;;;;;;5012673;28;20691;-67
2022/08/24 08:46:12;;;;;;;12.33;5.40;;;;;;;;;;5013292;28;20152;-68
2022/08/24 08:48:59;;;;;;;9.90;5.00;;;;;;;;;;5013522;28;20240;-67
2022/08/24 08:51:25;;;;;;;12.30;5.50;;;;;;;;;;5013010;28;20183;-67
2022/08/24 08:54:11;;;;;;;13.33;5.10;;;;;;;;;;5013130;28;20210;-67
2022/08/24 08:56:55;;;;;;;15.87;4.73;;;;;;;;;;5011894;28;20574;-67
2022/08/24 08:59:40;;;;;;;7.33;4.20;;;;;;;;;;5012061;28;20287;-67
2022/08/24 09:02:24;;;;;;;5.93;3.93;;;;;;;;;;5013214;28;20675;-67
2022/08/24 09:04:57;;;;;;;14.07;4.87;;;;;;;;;;5011804;28;20270;-67
2022/08/24 09:07:31;;;;;;;20.33;4.63;;;;;;;;;;5013302;28;20204;-67
2022/08/24 09:10:03;;;;;;;11.63;4.20;;;;;;;;;;5011796;28;20168;-67
2022/08/24 09:12:41;;;;;;;8.83;4.80;;;;;;;;;;5012878;28;20207;-67
2022/08/24 09:15:10;;;;;;;11.07;4.57;;;;;;;;;;5011686;28;20186;-67
2022/08/24 09:17:39;;;;;;;13.00;4.33;;;;;;;;;;5011732;28;20652;-66
2022/08/24 09:20:15;;;;;;;9.77;4.57;;;;;;;;;;5012819;28;20226;-67
2022/08/24 09:22:43;;;;;;;12.47;5.13;;;;;;;;;;5011592;28;20214;-67
2022/08/24 09:25:12;;;;;;;11.23;4.40;;;;;;;;;;5013319;28;20182;-67
2022/08/24 09:27:58;;;;;;;12.67;4.90;;;;;;;;;;5012314;28;20177;-67
2022/08/24 09:30:25;;;;;;;12.07;4.80;;;;;;;;;;5013179;28;20175;-67
2022/08/24 09:32:59;;;;;;;7.63;4.07;;;;;;;;;;5012785;28;20271;-67
2022/08/24 09:35:31;;;;;;;10.23;4.17;;;;;;;;;;5011546;28;20633;-68
2022/08/24 09:38:04;;;;;;;10.97;4.40;;;;;;;;;;5011782;28;20180;-67
2022/08/24 09:40:33;;;;;;;17.77;5.30;;;;;;;;;;5011795;28;20203;-67
2022/08/24 09:43:18;;;;;;;7.80;3.57;;;;;;;;;;5011826;28;20578;-69
2022/08/24 09:46:01;;;;;;;11.73;3.87;;;;;;;;;;5012942;28;20250;-66
2022/08/24 09:48:38;;;;;;;7.87;3.13;;;;;;;;;;5012444;28;20583;-68
2022/08/24 09:51:23;;;;;;;10.27;3.87;;;;;;;;;;5011878;28;20171;-68
2022/08/24 09:54:08;;;;;;;9.93;4.10;;;;;;;;;;5012621;28;20196;-68
2022/08/24 09:56:35;;;;;;;9.43;3.70;;;;;;;;;;5013738;28;20629;-66
2022/08/24 09:59:19;;;;;;;8.97;3.90;;;;;;;;;;5016726;28;20209;-67
2022/08/24 10:01:51;;;;;;;13.13;4.40;;;;;;;;;;5015037;28;20625;-67
2022/08/24 10:04:17;;;;;;;9.87;3.90;;;;;;;;;;5015439;28;20180;-67
2022/08/24 10:07:02;;;;;;;13.67;3.37;;;;;;;;;;5015601;28;20187;-67
2022/08/24 10:09:47;;;;;;;6.93;3.83;;;;;;;;;;5015856;28;20190;-68
2022/08/24 10:12:34;;;;;;;11.57;3.80;;;;;;;;;;5016881;28;20280;-69
2022/08/24 10:15:03;;;;;;;9.47;3.67;;;;;;;;;;5016805;28;20637;-68
2022/08/24 10:17:48;;;;;;;5.73;3.00;;;;;;;;;;5015598;28;20196;-67
2022/08/24 10:20:14;;;;;;;11.30;3.50;;;;;;;;;;5015946;28;20672;-68
2022/08/24 10:22:58;;;;;;;17.00;3.93;;;;;;;;;;5015752;28;20241;-68
2022/08/24 10:25:24;;;;;;;7.80;3.90;;;;;;;;;;5015967;28;20179;-67
2022/08/24 10:27:56;;;;;;;7.20;3.10;;;;;;;;;;5015534;28;20672;-67
2022/08/24 10:30:41;;;;;;;17.07;3.40;;;;;;;;;;5014361;28;20318;-68
2022/08/24 10:33:07;;;;;;;10.27;3.60;;;;;;;;;;5015930;28;20758;-67
2022/08/24 10:35:36;;;;;;;6.20;3.50;;;;;;;;;;5015604;28;20172;-67
2022/08/24 10:41:24;;;;;;;10.63;3.80;;;;;;;;;;5015239;28;20279;-68
2022/08/24 10:43:53;;;;;;;6.63;3.27;;;;;;;;;;5015162;28;20195;-67
2022/08/24 10:46:52;;;;;;;8.73;3.30;;;;;;;;;;5015431;28;20175;-67
2022/08/24 10:49:17;;;;;;;8.37;2.77;;;;;;;;;;4993214;28;20223;-67
2022/08/24 10:52:11;;;;;;;7.55;2.95;;;;;;;;;;5013932;28;20180;-67
2022/08/24 10:54:37;;;;;;;9.23;3.40;;;;;;;;;;5011336;28;20656;-67
2022/08/24 10:57:03;;;;;;;7.65;2.97;;;;;;;;;;5014960;28;20234;-67
2022/08/24 10:59:33;;;;;;;4.50;2.88;;;;;;;;;;5013568;28;20192;-66
2022/08/24 11:02:11;;;;;;;5.07;3.20;;;;;;;;;;5014128;28;20684;-67
2022/08/24 11:04:38;;;;;;;5.30;2.80;;;;;;;;;;5013684;28;20190;-67
2022/08/24 11:07:04;;;;;;;6.35;2.90;;;;;;;;;;5014507;28;20171;-67
2022/08/24 11:09:45;;;;;;;6.47;3.17;;;;;;;;;;5015090;28;20210;-67
2022/08/24 11:12:20;;;;;;;5.35;2.55;;;;;;;;;;5014585;28;20581;-67
2022/08/24 11:14:47;;;;;;;12.82;3.20;;;;;;;;;;5014760;28;20174;-67
2022/08/24 11:17:15;;;;;;;6.15;2.40;;;;;;;;;;5014947;28;20211;-66
2022/08/24 11:19:42;;;;;;;5.50;2.75;;;;;;;;;;5013243;28;20184;-67
2022/08/24 11:22:41;;;;;;;5.72;2.33;;;;;;;;;;5014515;28;20215;-67
2022/08/24 11:25:14;;;;;;;4.97;2.60;;;;;;;;;;4992558;28;20234;-67
2022/08/24 11:27:43;;;;;;;6.07;2.88;;;;;;;;;;5013452;28;20266;-66
2022/08/24 11:30:15;;;;;;;7.27;2.57;;;;;;;;;;5014491;28;20222;-66
2022/08/24 11:32:47;;;;;;;4.55;2.42;;;;;;;;;;5013172;28;20211;-64
2022/08/24 11:35:21;;;;;;;5.65;2.80;;;;;;;;;;5014319;28;20180;-64
2022/08/24 11:37:48;;;;;;;6.70;2.97;;;;;;;;;;5014397;28;20202;-67
2022/08/24 11:40:15;;;;;;;6.78;2.80;;;;;;;;;;5014424;28;20208;-67
2022/08/24 11:42:53;;;;;;;5.83;2.90;;;;;;;;;;5014185;28;20215;-67
2022/08/24 11:45:19;;;;;;;3.20;2.90;;;;;;;;;;5014365;28;20164;-67
2022/08/24 11:47:52;;;;;;;5.40;2.85;;;;;;;;;;5014272;28;20199;-67
2022/08/24 11:50:24;;;;;;;7.57;2.92;;;;;;;;;;5012657;28;20267;-67
2022/08/24 11:53:07;;;;;;;4.50;2.75;;;;;;;;;;5013935;28;20241;-67
2022/08/24 11:55:38;;;;;;;7.35;2.67;;;;;;;;;;5013990;28;20637;-67
2022/08/24 11:58:27;;;;;;;5.88;3.00;;;;;;;;;;5013990;28;20164;-67
2022/08/24 12:01:11;;;;;;;5.93;3.00;;;;;;;;;;5008431;28;20719;-66
2022/08/24 12:03:43;;;;;;;4.85;2.20;;;;;;;;;;5014134;28;20199;-67
2022/08/24 12:06:32;;;;;;;6.32;2.42;;;;;;;;;;5013723;28;20183;-67
2022/08/24 12:09:17;;;;;;;4.10;3.08;;;;;;;;;;5013786;28;20165;-67
2022/08/24 12:11:50;;;;;;;5.03;2.90;;;;;;;;;;5013574;28;20225;-67
2022/08/24 12:14:36;;;;;;;4.70;2.70;;;;;;;;;;5012394;28;20278;-67
2022/08/24 12:17:02;;;;;;;4.60;2.72;;;;;;;;;;5013627;28;20171;-67
2022/08/24 12:19:30;;;;;;;4.30;2.70;;;;;;;;;;5013368;28;20180;-67
2022/08/24 12:21:58;;;;;;;5.00;3.00;;;;;;;;;;5013479;28;20199;-66
2022/08/24 12:24:32;;;;;;;3.67;2.72;;;;;;;;;;5012493;28;20621;-67
2022/08/24 12:27:02;;;;;;;6.03;3.40;;;;;;;;;;5013635;28;20179;-67
2022/08/24 12:29:30;;;;;;;6.22;3.17;;;;;;;;;;5012357;28;20218;-67
2022/08/24 12:32:03;;;;;;;7.07;3.03;;;;;;;;;;5012195;28;20176;-66
2022/08/24 12:34:41;;;;;;;8.25;2.70;;;;;;;;;;5014023;28;20195;-67
2022/08/24 12:37:10;;;;;;;6.32;2.70;;;;;;;;;;5014562;28;20638;-67
2022/08/24 12:39:42;;;;;;;5.30;2.83;;;;;;;;;;5014797;28;20179;-67
2022/08/24 12:42:15;;;;;;;8.00;2.90;;;;;;;;;;5014877;28;20219;-67
2022/08/24 12:44:56;;;;;;;4.68;2.85;;;;;;;;;;5014000;28;20190;-67
2022/08/24 12:47:32;;;;;;;6.90;3.00;;;;;;;;;;5014160;28;20330;-67
2022/08/24 12:50:04;;;;;;;4.25;2.97;;;;;;;;;;5012768;28;20178;-67
2022/08/24 12:52:39;;;;;;;4.72;3.25;;;;;;;;;;5013284;28;20679;-67
2022/08/24 12:55:24;;;;;;;9.07;3.50;;;;;;;;;;5013210;28;20640;-67
2022/08/24 12:57:50;;;;;;;7.90;3.08;;;;;;;;;;5013516;28;20190;-67
2022/08/24 13:00:26;;;;;;;8.35;3.03;;;;;;;;;;5013177;28;20199;-67
2022/08/24 13:02:58;;;;;;;12.15;3.50;;;;;;;;;;5013153;28;20203;-67
2022/08/24 13:05:25;;;;;;;4.22;2.92;;;;;;;;;;5011936;28;20742;-67
2022/08/24 13:07:53;;;;;;;4.80;3.03;;;;;;;;;;5012065;28;20202;-67
2022/08/24 13:10:23;;;;;;;9.00;3.10;;;;;;;;;;5012533;28;20287;-67
2022/08/24 13:13:08;;;;;;;7.47;2.75;;;;;;;;;;5013284;28;20234;-67
2022/08/24 13:15:34;;;;;;;3.63;2.75;;;;;;;;;;5011857;28;20222;-67
2022/08/24 13:18:20;;;;;;;4.28;2.95;;;;;;;;;;5013078;28;20176;-67
2022/08/24 13:20:48;;;;;;;7.97;3.40;;;;;;;;;;5012678;28;20684;-66
2022/08/24 13:23:19;;;;;;;8.07;3.10;;;;;;;;;;5013025;28;20729;-66
2022/08/24 13:25:55;;;;;;;6.45;3.53;;;;;;;;;;5011629;28;20188;-68
2022/08/24 13:28:23;;;;;;;4.32;2.78;;;;;;;;;;5012748;28;20171;-67
2022/08/24 13:30:52;;;;;;;7.72;2.88;;;;;;;;;;5014440;28;20184;-67
2022/08/24 13:33:28;;;;;;;4.68;2.67;;;;;;;;;;5016757;28;20192;-67
2022/08/24 13:35:57;;;;;;;4.78;3.03;;;;;;;;;;5016615;28;20238;-66
2022/08/24 13:38:23;;;;;;;6.43;3.22;;;;;;;;;;5016504;28;20199;-67
2022/08/24 13:41:15;;;;;;;4.47;3.17;;;;;;;;;;5016816;28;20676;-67
2022/08/24 13:43:50;;;;;;;4.63;2.88;;;;;;;;;;5014562;28;20571;-67
2022/08/24 13:46:23;;;;;;;5.70;3.35;;;;;;;;;;5015214;28;20179;-67
2022/08/24 13:48:57;;;;;;;6.68;3.25;;;;;;;;;;5016554;28;20171;-67
2022/08/24 13:51:44;;;;;;;5.35;3.42;;;;;;;;;;5015369;28;20179;-67
2022/08/24 13:54:10;;;;;;;7.72;3.33;;;;;;;;;;5015033;28;20682;-67
2022/08/24 13:56:38;;;;;;;7.75;3.55;;;;;;;;;;5016282;28;20180;-67
2022/08/24 13:59:09;;;;;;;5.93;3.00;;;;;;;;;;5016606;28;20226;-69
2022/08/24 14:01:41;;;;;;;5.15;3.38;;;;;;;;;;5016525;28;20578;-67
2022/08/24 14:04:15;;;;;;;5.15;3.20;;;;;;;;;;5015054;28;20211;-66
2022/08/24 14:07:14;;;;;;;5.40;3.10;;;;;;;;;;5015187;28;20172;-66
2022/08/24 14:09:48;;;;;;;4.45;3.25;;;;;;;;;;4994577;28;20215;-66
2022/08/24 14:12:14;;;;;;;7.13;3.33;;;;;;;;;;5016701;28;20722;-67
2022/08/24 14:14:42;;;;;;;9.95;3.33;;;;;;;;;;5016501;28;20239;-66
2022/08/24 14:20:23;;;;;;;3.50;3.00;;;;;;;;;;5016461;28;20214;-66
2022/08/24 14:23:07;;;;;;;7.07;3.45;;;;;;;;;;5015225;28;20253;-66
2022/08/24 14:25:34;;;;;;;5.10;3.78;;;;;;;;;;5015595;28;20171;-66
2022/08/24 14:28:02;;;;;;;9.40;3.08;;;;;;;;;;5015050;28;20186;-67
2022/08/24 14:30:28;;;;;;;3.63;2.95;;;;;;;;;;5015199;28;20558;-67
2022/08/24 14:33:04;;;;;;;3.70;3.35;;;;;;;;;;5016496;28;20222;-67
2022/08/24 14:35:44;;;;;;;5.78;3.50;;;;;;;;;;5016304;28;20176;-67
2022/08/24 14:38:22;;;;;;;5.38;3.42;;;;;;;;;;5015967;28;20179;-66
2022/08/24 14:41:06;;;;;;;5.13;3.13;;;;;;;;;;5015447;28;20191;-66
2022/08/24 14:43:54;;;;;;;6.97;3.63;;;;;;;;;;5015289;28;20234;-66
2022/08/24 14:46:32;;;;;;;4.63;3.10;;;;;;;;;;5015333;28;20156;-66
2022/08/24 14:49:08;;;;;;;4.18;3.60;;;;;;;;;;5015378;28;20171;-65
2022/08/24 14:51:34;;;;;;;4.63;3.30;;;;;;;;;;5014147;28;20674;-63
2022/08/24 14:54:03;;;;;;;3.45;3.15;;;;;;;;;;5015413;28;20196;-64
2022/08/24 14:56:38;;;;;;;7.38;3.28;;;;;;;;;;5015187;28;20183;-64
2022/08/24 14:59:08;;;;;;;6.72;3.53;;;;;;;;;;5015121;28;20183;-65
2022/08/24 15:01:40;;;;;;;4.43;3.55;;;;;;;;;;5013779;28;20556;-63
2022/08/24 15:04:26;;;;;;;6.30;4.05;;;;;;;;;;5014944;28;20192;-63
2022/08/24 15:06:57;;;;;;;8.35;3.92;;;;;;;;;;5013534;28;20250;-64
2022/08/24 15:09:25;;;;;;;5.00;3.40;;;;;;;;;;5013632;28;20238;-65